sensor_id;sensor_type;location;lat;lon;timestamp;temperature;humidity
39997;DHT22;25688;52.338;21.072;2023-05-21T00:00:06;11.50;99.90
39997;DHT22;25688;52.338;21.072;2023-05-21T00:02:36;11.50;99.90
39997;DHT22;25688;52.338;21.072;2023-05-21T00:05:02;11.50;99.90
39997;DHT22;25688;52.338;21.072;2023-05-21T00:07:28;11.50;99.90
39997;DHT22;25688;52.338;21.072;2023-05-21T00:09:56;11.50;99.90
39997;DHT22;25688;52.338;21.072;2023-05-21T00:12:22;11.50;99.90
39997;DHT22;25688;52.338;21.072;2023-05-21T00:14:47;11.40;99.90
39997;DHT22;25688;52.338;21.072;2023-05-21T00:17:13;11.40;99.90
39997;DHT22;25688;52.338;21.072;2023-05-21T00:19:39;11.40;99.90
39997;DHT22;25688;52.338;21.072;2023-05-21T00:22:05;11.30;99.90
39997;DHT22;25688;52.338;21.072;2023-05-21T00:24:31;11.30;99.90
39997;DHT22;25688;52.338;21.072;2023-05-21T00:26:57;11.30;99.90
39997;DHT22;25688;52.338;21.072;2023-05-21T00:29:23;11.30;99.90
39997;DHT22;25688;52.338;21.072;2023-05-21T00:31:49;11.20;99.90
39997;DHT22;25688;52.338;21.072;2023-05-21T00:34:15;11.20;99.90
39997;DHT22;25688;52.338;21.072;2023-05-21T00:36:41;11.20;99.90
39997;DHT22;25688;52.338;21.072;2023-05-21T00:39:10;11.20;99.90
39997;DHT22;25688;52.338;21.072;2023-05-21T00:41:36;11.20;99.90
39997;DHT22;25688;52.338;21.072;2023-05-21T00:44:05;11.20;99.90
39997;DHT22;25688;52.338;21.072;2023-05-21T00:46:31;11.10;99.90
39997;DHT22;25688;52.338;21.072;2023-05-21T00:48:57;11.10;99.90
39997;DHT22;25688;52.338;21.072;2023-05-21T00:51:23;11.10;99.90
39997;DHT22;25688;52.338;21.072;2023-05-21T00:53:51;11.00;99.90
39997;DHT22;25688;52.338;21.072;2023-05-21T00:56:21;11.00;99.90
39997;DHT22;25688;52.338;21.072;2023-05-21T00:58:49;11.00;99.90
39997;DHT22;25688;52.338;21.072;2023-05-21T01:01:16;11.00;99.90
39997;DHT22;25688;52.338;21.072;2023-05-21T01:03:43;11.00;99.90
39997;DHT22;25688;52.338;21.072;2023-05-21T01:06:10;11.00;99.90
39997;DHT22;25688;52.338;21.072;2023-05-21T01:08:36;11.00;99.90
39997;DHT22;25688;52.338;21.072;2023-05-21T01:11:04;11.00;99.90
39997;DHT22;25688;52.338;21.072;2023-05-21T01:13:32;10.90;99.90
39997;DHT22;25688;52.338;21.072;2023-05-21T01:15:59;10.90;99.90
39997;DHT22;25688;52.338;21.072;2023-05-21T01:18:26;11.00;99.90
39997;DHT22;25688;52.338;21.072;2023-05-21T01:20:51;11.00;99.90
39997;DHT22;25688;52.338;21.072;2023-05-21T01:23:19;11.00;99.90
39997;DHT22;25688;52.338;21.072;2023-05-21T01:25:46;11.00;99.90
39997;DHT22;25688;52.338;21.072;2023-05-21T01:28:12;10.90;99.90
39997;DHT22;25688;52.338;21.072;2023-05-21T01:30:42;10.90;99.90
39997;DHT22;25688;52.338;21.072;2023-05-21T01:33:18;10.90;99.90
39997;DHT22;25688;52.338;21.072;2023-05-21T01:39:03;10.80;99.90
39997;DHT22;25688;52.338;21.072;2023-05-21T01:41:35;10.80;99.90
39997;DHT22;25688;52.338;21.072;2023-05-21T01:44:03;10.70;99.90
39997;DHT22;25688;52.338;21.072;2023-05-21T01:46:32;10.70;99.90
39997;DHT22;25688;52.338;21.072;2023-05-21T01:48:59;10.60;99.90
39997;DHT22;25688;52.338;21.072;2023-05-21T01:51:26;10.40;99.90
39997;DHT22;25688;52.338;21.072;2023-05-21T01:53:52;10.40;99.90
39997;DHT22;25688;52.338;21.072;2023-05-21T01:56:18;10.20;99.90
39997;DHT22;25688;52.338;21.072;2023-05-21T01:58:43;10.20;99.90
39997;DHT22;25688;52.338;21.072;2023-05-21T02:01:09;10.00;99.90
39997;DHT22;25688;52.338;21.072;2023-05-21T02:03:36;9.90;99.90
39997;DHT22;25688;52.338;21.072;2023-05-21T02:06:03;9.80;99.90
39997;DHT22;25688;52.338;21.072;2023-05-21T02:08:28;9.70;99.90
39997;DHT22;25688;52.338;21.072;2023-05-21T02:10:55;9.60;99.90
39997;DHT22;25688;52.338;21.072;2023-05-21T02:13:21;9.50;99.90
39997;DHT22;25688;52.338;21.072;2023-05-21T02:15:47;9.40;99.90
39997;DHT22;25688;52.338;21.072;2023-05-21T02:18:13;9.30;99.90
39997;DHT22;25688;52.338;21.072;2023-05-21T02:20:42;9.20;99.90
39997;DHT22;25688;52.338;21.072;2023-05-21T02:23:09;9.10;99.90
39997;DHT22;25688;52.338;21.072;2023-05-21T02:25:34;9.00;99.90
39997;DHT22;25688;52.338;21.072;2023-05-21T02:28:00;8.90;99.90
39997;DHT22;25688;52.338;21.072;2023-05-21T02:30:26;8.80;99.90
39997;DHT22;25688;52.338;21.072;2023-05-21T02:32:52;8.70;99.90
39997;DHT22;25688;52.338;21.072;2023-05-21T02:35:19;8.70;99.90
39997;DHT22;25688;52.338;21.072;2023-05-21T02:37:45;8.60;99.90
39997;DHT22;25688;52.338;21.072;2023-05-21T02:40:11;8.60;99.90
39997;DHT22;25688;52.338;21.072;2023-05-21T02:42:38;8.50;99.90
39997;DHT22;25688;52.338;21.072;2023-05-21T02:45:08;8.50;99.90
39997;DHT22;25688;52.338;21.072;2023-05-21T02:47:35;8.50;99.90
39997;DHT22;25688;52.338;21.072;2023-05-21T02:50:01;8.50;99.90
39997;DHT22;25688;52.338;21.072;2023-05-21T02:52:27;8.50;99.90
39997;DHT22;25688;52.338;21.072;2023-05-21T02:54:53;8.50;99.90
39997;DHT22;25688;52.338;21.072;2023-05-21T02:57:19;8.50;99.90
39997;DHT22;25688;52.338;21.072;2023-05-21T02:59:45;8.50;99.90
39997;DHT22;25688;52.338;21.072;2023-05-21T03:02:11;8.40;99.90
39997;DHT22;25688;52.338;21.072;2023-05-21T03:04:37;8.30;99.90
39997;DHT22;25688;52.338;21.072;2023-05-21T03:07:03;8.40;99.90
39997;DHT22;25688;52.338;21.072;2023-05-21T03:09:29;8.30;99.90
39997;DHT22;25688;52.338;21.072;2023-05-21T03:11:55;8.40;99.90
39997;DHT22;25688;52.338;21.072;2023-05-21T03:14:21;8.30;99.90
39997;DHT22;25688;52.338;21.072;2023-05-21T03:16:49;8.30;99.90
39997;DHT22;25688;52.338;21.072;2023-05-21T03:19:16;8.40;99.90
39997;DHT22;25688;52.338;21.072;2023-05-21T03:21:41;8.40;99.90
39997;DHT22;25688;52.338;21.072;2023-05-21T03:24:07;8.50;99.90
39997;DHT22;25688;52.338;21.072;2023-05-21T03:26:34;8.50;99.90
39997;DHT22;25688;52.338;21.072;2023-05-21T03:29:00;8.60;99.90
39997;DHT22;25688;52.338;21.072;2023-05-21T03:31:26;8.70;99.90
39997;DHT22;25688;52.338;21.072;2023-05-21T03:33:52;8.80;99.90
39997;DHT22;25688;52.338;21.072;2023-05-21T03:36:18;8.90;99.90
39997;DHT22;25688;52.338;21.072;2023-05-21T03:38:44;9.00;99.90
39997;DHT22;25688;52.338;21.072;2023-05-21T03:41:11;9.10;99.90
39997;DHT22;25688;52.338;21.072;2023-05-21T03:43:36;9.30;99.90
39997;DHT22;25688;52.338;21.072;2023-05-21T03:46:02;9.40;99.90
39997;DHT22;25688;52.338;21.072;2023-05-21T03:48:28;9.50;99.90
39997;DHT22;25688;52.338;21.072;2023-05-21T03:50:54;9.60;99.90
39997;DHT22;25688;52.338;21.072;2023-05-21T03:53:20;9.80;99.90
39997;DHT22;25688;52.338;21.072;2023-05-21T03:55:46;9.90;99.90
39997;DHT22;25688;52.338;21.072;2023-05-21T03:58:20;10.00;99.90
39997;DHT22;25688;52.338;21.072;2023-05-21T04:00:46;10.10;99.90
39997;DHT22;25688;52.338;21.072;2023-05-21T04:03:12;10.30;99.90
39997;DHT22;25688;52.338;21.072;2023-05-21T04:05:40;10.40;99.90
39997;DHT22;25688;52.338;21.072;2023-05-21T04:08:06;10.60;99.90
39997;DHT22;25688;52.338;21.072;2023-05-21T04:10:33;10.70;99.90
39997;DHT22;25688;52.338;21.072;2023-05-21T04:12:59;10.80;99.90
39997;DHT22;25688;52.338;21.072;2023-05-21T04:15:24;11.00;99.90
39997;DHT22;25688;52.338;21.072;2023-05-21T04:17:52;11.20;99.90
39997;DHT22;25688;52.338;21.072;2023-05-21T04:20:19;11.30;99.90
39997;DHT22;25688;52.338;21.072;2023-05-21T04:22:45;11.40;99.90
39997;DHT22;25688;52.338;21.072;2023-05-21T04:25:10;11.60;99.90
39997;DHT22;25688;52.338;21.072;2023-05-21T04:27:36;11.70;99.90
39997;DHT22;25688;52.338;21.072;2023-05-21T04:30:03;11.80;99.90
39997;DHT22;25688;52.338;21.072;2023-05-21T04:32:30;12.00;99.90
39997;DHT22;25688;52.338;21.072;2023-05-21T04:34:57;12.10;99.90
39997;DHT22;25688;52.338;21.072;2023-05-21T04:37:29;12.20;99.90
39997;DHT22;25688;52.338;21.072;2023-05-21T04:39:59;12.40;99.90
39997;DHT22;25688;52.338;21.072;2023-05-21T04:42:26;12.50;99.90
39997;DHT22;25688;52.338;21.072;2023-05-21T04:44:52;12.60;99.90
39997;DHT22;25688;52.338;21.072;2023-05-21T04:47:20;12.70;99.90
39997;DHT22;25688;52.338;21.072;2023-05-21T04:49:46;12.90;99.90
39997;DHT22;25688;52.338;21.072;2023-05-21T04:52:12;13.00;99.90
39997;DHT22;25688;52.338;21.072;2023-05-21T04:54:38;13.10;99.90
39997;DHT22;25688;52.338;21.072;2023-05-21T04:57:06;13.30;99.90
39997;DHT22;25688;52.338;21.072;2023-05-21T04:59:33;13.50;99.90
39997;DHT22;25688;52.338;21.072;2023-05-21T05:01:59;13.60;99.90
39997;DHT22;25688;52.338;21.072;2023-05-21T05:04:25;13.70;99.90
39997;DHT22;25688;52.338;21.072;2023-05-21T05:06:51;13.90;99.90
39997;DHT22;25688;52.338;21.072;2023-05-21T05:09:17;14.00;99.90
39997;DHT22;25688;52.338;21.072;2023-05-21T05:11:43;14.20;99.90
39997;DHT22;25688;52.338;21.072;2023-05-21T05:14:09;14.30;99.90
39997;DHT22;25688;52.338;21.072;2023-05-21T05:16:35;14.40;99.90
39997;DHT22;25688;52.338;21.072;2023-05-21T05:19:00;14.50;99.90
39997;DHT22;25688;52.338;21.072;2023-05-21T05:21:27;14.70;99.90
39997;DHT22;25688;52.338;21.072;2023-05-21T05:23:52;14.80;99.90
39997;DHT22;25688;52.338;21.072;2023-05-21T05:26:18;14.90;99.90
39997;DHT22;25688;52.338;21.072;2023-05-21T05:28:44;15.00;99.90
39997;DHT22;25688;52.338;21.072;2023-05-21T05:31:13;15.10;99.90
39997;DHT22;25688;52.338;21.072;2023-05-21T05:33:39;15.20;99.90
39997;DHT22;25688;52.338;21.072;2023-05-21T05:36:06;15.30;99.90
39997;DHT22;25688;52.338;21.072;2023-05-21T05:38:33;15.50;99.90
39997;DHT22;25688;52.338;21.072;2023-05-21T05:40:59;15.60;99.90
39997;DHT22;25688;52.338;21.072;2023-05-21T05:43:25;15.70;99.90
39997;DHT22;25688;52.338;21.072;2023-05-21T05:45:51;15.80;99.90
39997;DHT22;25688;52.338;21.072;2023-05-21T05:48:16;15.90;99.90
39997;DHT22;25688;52.338;21.072;2023-05-21T05:50:43;16.00;99.90
39997;DHT22;25688;52.338;21.072;2023-05-21T05:53:09;16.10;99.90
39997;DHT22;25688;52.338;21.072;2023-05-21T05:55:38;16.20;99.90
39997;DHT22;25688;52.338;21.072;2023-05-21T05:58:04;16.30;99.90
39997;DHT22;25688;52.338;21.072;2023-05-21T06:00:30;16.30;99.90
39997;DHT22;25688;52.338;21.072;2023-05-21T06:02:56;16.40;99.90
39997;DHT22;25688;52.338;21.072;2023-05-21T06:05:21;16.50;99.90
39997;DHT22;25688;52.338;21.072;2023-05-21T06:07:47;16.60;99.90
39997;DHT22;25688;52.338;21.072;2023-05-21T06:10:13;16.70;99.90
39997;DHT22;25688;52.338;21.072;2023-05-21T06:12:39;16.80;99.90
39997;DHT22;25688;52.338;21.072;2023-05-21T06:15:05;16.90;99.90
39997;DHT22;25688;52.338;21.072;2023-05-21T06:17:31;17.10;99.90
39997;DHT22;25688;52.338;21.072;2023-05-21T06:19:56;17.20;99.90
39997;DHT22;25688;52.338;21.072;2023-05-21T06:22:22;17.30;99.90
39997;DHT22;25688;52.338;21.072;2023-05-21T06:24:48;17.40;99.90
39997;DHT22;25688;52.338;21.072;2023-05-21T06:27:14;17.50;99.90
39997;DHT22;25688;52.338;21.072;2023-05-21T06:29:39;17.70;99.90
39997;DHT22;25688;52.338;21.072;2023-05-21T06:32:07;17.70;99.90
39997;DHT22;25688;52.338;21.072;2023-05-21T06:34:33;17.90;99.90
39997;DHT22;25688;52.338;21.072;2023-05-21T06:36:59;18.00;99.90
39997;DHT22;25688;52.338;21.072;2023-05-21T06:39:25;18.10;99.90
39997;DHT22;25688;52.338;21.072;2023-05-21T06:41:51;18.20;99.90
39997;DHT22;25688;52.338;21.072;2023-05-21T06:44:17;18.30;99.90
39997;DHT22;25688;52.338;21.072;2023-05-21T06:46:43;18.40;99.90
39997;DHT22;25688;52.338;21.072;2023-05-21T06:49:10;18.50;99.90
39997;DHT22;25688;52.338;21.072;2023-05-21T06:51:38;18.70;99.90
39997;DHT22;25688;52.338;21.072;2023-05-21T06:54:03;18.70;99.90
39997;DHT22;25688;52.338;21.072;2023-05-21T06:56:29;18.80;99.90
39997;DHT22;25688;52.338;21.072;2023-05-21T06:58:55;18.90;99.90
39997;DHT22;25688;52.338;21.072;2023-05-21T07:01:22;19.00;99.90
39997;DHT22;25688;52.338;21.072;2023-05-21T07:03:48;19.00;99.90
39997;DHT22;25688;52.338;21.072;2023-05-21T07:06:13;19.10;99.90
39997;DHT22;25688;52.338;21.072;2023-05-21T07:08:39;19.10;99.90
39997;DHT22;25688;52.338;21.072;2023-05-21T07:11:05;19.10;99.90
39997;DHT22;25688;52.338;21.072;2023-05-21T07:13:31;19.10;99.90
39997;DHT22;25688;52.338;21.072;2023-05-21T07:15:56;19.30;99.90
39997;DHT22;25688;52.338;21.072;2023-05-21T07:18:22;19.40;99.90
39997;DHT22;25688;52.338;21.072;2023-05-21T07:20:48;19.60;99.90
39997;DHT22;25688;52.338;21.072;2023-05-21T07:23:14;19.70;99.90
39997;DHT22;25688;52.338;21.072;2023-05-21T07:25:39;19.70;99.90
39997;DHT22;25688;52.338;21.072;2023-05-21T07:28:05;19.70;99.90
39997;DHT22;25688;52.338;21.072;2023-05-21T07:30:31;19.70;99.90
39997;DHT22;25688;52.338;21.072;2023-05-21T07:32:56;19.80;99.90
39997;DHT22;25688;52.338;21.072;2023-05-21T07:35:22;19.90;99.90
39997;DHT22;25688;52.338;21.072;2023-05-21T07:37:48;20.00;99.90
39997;DHT22;25688;52.338;21.072;2023-05-21T07:40:14;20.00;99.90
39997;DHT22;25688;52.338;21.072;2023-05-21T07:42:39;20.10;99.90
39997;DHT22;25688;52.338;21.072;2023-05-21T07:45:06;20.10;99.90
39997;DHT22;25688;52.338;21.072;2023-05-21T07:47:32;20.20;99.90
39997;DHT22;25688;52.338;21.072;2023-05-21T07:49:58;20.20;99.90
39997;DHT22;25688;52.338;21.072;2023-05-21T07:52:23;20.30;99.90
39997;DHT22;25688;52.338;21.072;2023-05-21T07:54:49;20.30;99.90
39997;DHT22;25688;52.338;21.072;2023-05-21T07:57:15;20.40;99.90
39997;DHT22;25688;52.338;21.072;2023-05-21T07:59:41;20.60;99.90
39997;DHT22;25688;52.338;21.072;2023-05-21T08:02:07;20.50;99.90
39997;DHT22;25688;52.338;21.072;2023-05-21T08:04:33;20.60;99.90
39997;DHT22;25688;52.338;21.072;2023-05-21T08:06:58;20.70;99.90
39997;DHT22;25688;52.338;21.072;2023-05-21T08:09:24;20.70;99.90
39997;DHT22;25688;52.338;21.072;2023-05-21T08:11:50;20.80;99.90
39997;DHT22;25688;52.338;21.072;2023-05-21T08:14:16;20.90;99.90
39997;DHT22;25688;52.338;21.072;2023-05-21T08:16:42;20.90;99.90
39997;DHT22;25688;52.338;21.072;2023-05-21T08:19:09;21.00;99.90
39997;DHT22;25688;52.338;21.072;2023-05-21T08:21:35;21.00;99.90
39997;DHT22;25688;52.338;21.072;2023-05-21T08:24:01;21.10;99.90
39997;DHT22;25688;52.338;21.072;2023-05-21T08:26:27;21.20;99.80
39997;DHT22;25688;52.338;21.072;2023-05-21T08:28:53;21.30;95.90
39997;DHT22;25688;52.338;21.072;2023-05-21T08:31:20;21.30;97.80
39997;DHT22;25688;52.338;21.072;2023-05-21T08:33:50;21.40;95.70
39997;DHT22;25688;52.338;21.072;2023-05-21T08:36:17;21.40;95.70
39997;DHT22;25688;52.338;21.072;2023-05-21T08:38:43;21.50;97.20
39997;DHT22;25688;52.338;21.072;2023-05-21T08:41:10;21.60;96.00
39997;DHT22;25688;52.338;21.072;2023-05-21T08:43:37;21.60;93.00
39997;DHT22;25688;52.338;21.072;2023-05-21T08:46:04;21.60;92.20
39997;DHT22;25688;52.338;21.072;2023-05-21T08:48:30;21.60;92.90
39997;DHT22;25688;52.338;21.072;2023-05-21T08:50:58;21.60;92.60
39997;DHT22;25688;52.338;21.072;2023-05-21T08:53:24;21.60;93.30
39997;DHT22;25688;52.338;21.072;2023-05-21T08:55:53;21.60;94.50
39997;DHT22;25688;52.338;21.072;2023-05-21T08:58:23;21.60;95.70
39997;DHT22;25688;52.338;21.072;2023-05-21T09:00:49;21.80;91.40
39997;DHT22;25688;52.338;21.072;2023-05-21T09:03:15;21.80;92.60
39997;DHT22;25688;52.338;21.072;2023-05-21T09:05:42;21.70;91.30
39997;DHT22;25688;52.338;21.072;2023-05-21T09:08:34;21.70;93.70
39997;DHT22;25688;52.338;21.072;2023-05-21T09:11:00;21.70;91.70
39997;DHT22;25688;52.338;21.072;2023-05-21T09:13:28;21.80;92.80
39997;DHT22;25688;52.338;21.072;2023-05-21T09:15:56;22.00;94.50
39997;DHT22;25688;52.338;21.072;2023-05-21T09:18:21;22.10;93.90
39997;DHT22;25688;52.338;21.072;2023-05-21T09:20:47;22.20;92.00
39997;DHT22;25688;52.338;21.072;2023-05-21T09:23:17;22.20;90.20
39997;DHT22;25688;52.338;21.072;2023-05-21T09:25:47;22.20;91.40
39997;DHT22;25688;52.338;21.072;2023-05-21T09:28:15;22.20;90.60
39997;DHT22;25688;52.338;21.072;2023-05-21T09:30:48;22.20;89.80
39997;DHT22;25688;52.338;21.072;2023-05-21T09:33:26;22.20;86.80
39997;DHT22;25688;52.338;21.072;2023-05-21T09:35:54;22.20;89.80
39997;DHT22;25688;52.338;21.072;2023-05-21T09:38:23;22.20;91.60
39997;DHT22;25688;52.338;21.072;2023-05-21T09:40:49;22.40;91.70
39997;DHT22;25688;52.338;21.072;2023-05-21T09:43:15;22.40;90.10
39997;DHT22;25688;52.338;21.072;2023-05-21T09:45:51;22.30;87.20
39997;DHT22;25688;52.338;21.072;2023-05-21T09:48:32;22.30;90.90
39997;DHT22;25688;52.338;21.072;2023-05-21T09:51:16;22.40;89.00
39997;DHT22;25688;52.338;21.072;2023-05-21T09:53:54;22.40;89.80
39997;DHT22;25688;52.338;21.072;2023-05-21T09:56:28;22.50;91.80
39997;DHT22;25688;52.338;21.072;2023-05-21T09:59:02;22.70;91.40
39997;DHT22;25688;52.338;21.072;2023-05-21T10:01:31;22.70;89.70
39997;DHT22;25688;52.338;21.072;2023-05-21T10:04:06;22.60;87.30
39997;DHT22;25688;52.338;21.072;2023-05-21T10:06:36;22.30;82.10
39997;DHT22;25688;52.338;21.072;2023-05-21T10:09:06;22.20;86.60
39997;DHT22;25688;52.338;21.072;2023-05-21T10:11:33;22.20;86.10
39997;DHT22;25688;52.338;21.072;2023-05-21T10:14:05;22.60;82.90
39997;DHT22;25688;52.338;21.072;2023-05-21T10:16:35;22.20;88.80
39997;DHT22;25688;52.338;21.072;2023-05-21T10:19:02;22.20;88.40
39997;DHT22;25688;52.338;21.072;2023-05-21T10:21:29;22.10;82.30
39997;DHT22;25688;52.338;21.072;2023-05-21T10:23:57;22.20;83.30
39997;DHT22;25688;52.338;21.072;2023-05-21T10:26:26;22.30;87.60
39997;DHT22;25688;52.338;21.072;2023-05-21T10:28:55;22.40;84.70
39997;DHT22;25688;52.338;21.072;2023-05-21T10:31:22;22.40;84.90
39997;DHT22;25688;52.338;21.072;2023-05-21T10:33:48;22.70;90.00
39997;DHT22;25688;52.338;21.072;2023-05-21T10:36:16;22.90;90.40
39997;DHT22;25688;52.338;21.072;2023-05-21T10:38:46;23.00;88.50
39997;DHT22;25688;52.338;21.072;2023-05-21T10:41:21;23.00;82.50
39997;DHT22;25688;52.338;21.072;2023-05-21T10:47:16;22.70;82.80
39997;DHT22;25688;52.338;21.072;2023-05-21T10:50:02;22.80;81.20
39997;DHT22;25688;52.338;21.072;2023-05-21T10:53:03;22.70;79.00
39997;DHT22;25688;52.338;21.072;2023-05-21T11:01:33;22.50;78.20
39997;DHT22;25688;52.338;21.072;2023-05-21T11:04:01;22.60;81.50
39997;DHT22;25688;52.338;21.072;2023-05-21T11:06:28;22.70;83.30
39997;DHT22;25688;52.338;21.072;2023-05-21T11:08:54;22.80;78.50
39997;DHT22;25688;52.338;21.072;2023-05-21T11:11:58;22.80;81.70
39997;DHT22;25688;52.338;21.072;2023-05-21T11:14:28;22.80;78.00
39997;DHT22;25688;52.338;21.072;2023-05-21T11:17:01;22.70;81.40
39997;DHT22;25688;52.338;21.072;2023-05-21T11:19:41;22.80;83.70
39997;DHT22;25688;52.338;21.072;2023-05-21T11:22:09;22.90;77.10
39997;DHT22;25688;52.338;21.072;2023-05-21T11:24:44;22.90;81.80
39997;DHT22;25688;52.338;21.072;2023-05-21T11:27:10;23.00;81.80
39997;DHT22;25688;52.338;21.072;2023-05-21T11:29:43;23.10;81.00
39997;DHT22;25688;52.338;21.072;2023-05-21T11:32:12;23.10;78.40
39997;DHT22;25688;52.338;21.072;2023-05-21T11:34:40;23.00;78.40
39997;DHT22;25688;52.338;21.072;2023-05-21T11:39:48;23.00;78.50
39997;DHT22;25688;52.338;21.072;2023-05-21T11:42:31;23.20;79.50
39997;DHT22;25688;52.338;21.072;2023-05-21T11:44:59;23.30;75.50
39997;DHT22;25688;52.338;21.072;2023-05-21T11:47:27;23.30;77.80
39997;DHT22;25688;52.338;21.072;2023-05-21T11:49:54;22.50;76.80
39997;DHT22;25688;52.338;21.072;2023-05-21T11:52:21;23.40;77.00
39997;DHT22;25688;52.338;21.072;2023-05-21T11:54:52;23.40;73.00
39997;DHT22;25688;52.338;21.072;2023-05-21T11:57:25;23.50;77.10
39997;DHT22;25688;52.338;21.072;2023-05-21T11:59:55;23.50;74.30
39997;DHT22;25688;52.338;21.072;2023-05-21T12:02:25;23.60;76.00
39997;DHT22;25688;52.338;21.072;2023-05-21T12:04:54;23.70;74.00
39997;DHT22;25688;52.338;21.072;2023-05-21T12:07:26;23.70;75.90
39997;DHT22;25688;52.338;21.072;2023-05-21T12:09:53;23.70;68.90
39997;DHT22;25688;52.338;21.072;2023-05-21T12:12:20;23.70;72.30
39997;DHT22;25688;52.338;21.072;2023-05-21T12:14:48;24.00;72.20
39997;DHT22;25688;52.338;21.072;2023-05-21T12:17:16;23.80;73.50
39997;DHT22;25688;52.338;21.072;2023-05-21T12:19:45;23.70;71.20
39997;DHT22;25688;52.338;21.072;2023-05-21T12:22:11;23.70;67.60
39997;DHT22;25688;52.338;21.072;2023-05-21T12:24:39;23.50;67.90
39997;DHT22;25688;52.338;21.072;2023-05-21T12:27:06;23.60;73.60
39997;DHT22;25688;52.338;21.072;2023-05-21T12:29:43;23.60;68.70
39997;DHT22;25688;52.338;21.072;2023-05-21T12:32:11;23.60;69.80
39997;DHT22;25688;52.338;21.072;2023-05-21T12:34:40;23.70;69.30
39997;DHT22;25688;52.338;21.072;2023-05-21T12:37:08;23.70;70.40
39997;DHT22;25688;52.338;21.072;2023-05-21T12:39:44;23.70;65.40
39997;DHT22;25688;52.338;21.072;2023-05-21T12:42:10;23.60;65.80
39997;DHT22;25688;52.338;21.072;2023-05-21T12:44:43;23.40;66.50
39997;DHT22;25688;52.338;21.072;2023-05-21T12:47:10;23.40;66.90
39997;DHT22;25688;52.338;21.072;2023-05-21T12:49:43;23.40;67.80
39997;DHT22;25688;52.338;21.072;2023-05-21T12:52:11;23.40;68.20
39997;DHT22;25688;52.338;21.072;2023-05-21T12:54:39;23.40;66.70
39997;DHT22;25688;52.338;21.072;2023-05-21T12:59:58;23.20;67.10
39997;DHT22;25688;52.338;21.072;2023-05-21T13:02:32;23.40;68.10
39997;DHT22;25688;52.338;21.072;2023-05-21T13:05:00;23.50;66.70
39997;DHT22;25688;52.338;21.072;2023-05-21T13:07:28;23.60;68.60
39997;DHT22;25688;52.338;21.072;2023-05-21T13:09:54;23.80;66.90
39997;DHT22;25688;52.338;21.072;2023-05-21T13:12:24;23.90;69.20
39997;DHT22;25688;52.338;21.072;2023-05-21T13:14:55;23.90;66.10
39997;DHT22;25688;52.338;21.072;2023-05-21T13:17:22;24.00;67.70
39997;DHT22;25688;52.338;21.072;2023-05-21T13:20:11;23.90;65.80
39997;DHT22;25688;52.338;21.072;2023-05-21T13:22:38;23.90;66.60
39997;DHT22;25688;52.338;21.072;2023-05-21T13:25:08;23.70;68.10
39997;DHT22;25688;52.338;21.072;2023-05-21T13:27:34;23.80;68.00
39997;DHT22;25688;52.338;21.072;2023-05-21T13:30:00;23.70;65.50
39997;DHT22;25688;52.338;21.072;2023-05-21T13:32:26;23.80;70.10
39997;DHT22;25688;52.338;21.072;2023-05-21T13:34:52;23.90;67.60
39997;DHT22;25688;52.338;21.072;2023-05-21T13:37:20;23.80;69.10
39997;DHT22;25688;52.338;21.072;2023-05-21T13:39:46;23.80;65.10
39997;DHT22;25688;52.338;21.072;2023-05-21T13:42:12;23.80;66.10
39997;DHT22;25688;52.338;21.072;2023-05-21T13:44:38;23.80;66.20
39997;DHT22;25688;52.338;21.072;2023-05-21T13:47:07;23.80;66.10
39997;DHT22;25688;52.338;21.072;2023-05-21T13:49:37;23.70;65.90
39997;DHT22;25688;52.338;21.072;2023-05-21T13:52:04;23.70;66.10
39997;DHT22;25688;52.338;21.072;2023-05-21T13:54:33;23.70;66.80
39997;DHT22;25688;52.338;21.072;2023-05-21T13:56:59;23.60;62.40
39997;DHT22;25688;52.338;21.072;2023-05-21T13:59:25;23.50;62.60
39997;DHT22;25688;52.338;21.072;2023-05-21T14:01:51;23.50;61.40
39997;DHT22;25688;52.338;21.072;2023-05-21T14:04:18;23.50;64.70
39997;DHT22;25688;52.338;21.072;2023-05-21T14:06:47;23.40;62.30
39997;DHT22;25688;52.338;21.072;2023-05-21T14:09:13;23.40;63.20
39997;DHT22;25688;52.338;21.072;2023-05-21T14:11:39;23.40;65.90
39997;DHT22;25688;52.338;21.072;2023-05-21T14:14:05;23.50;64.90
39997;DHT22;25688;52.338;21.072;2023-05-21T14:16:31;23.60;64.30
39997;DHT22;25688;52.338;21.072;2023-05-21T14:18:57;23.60;65.00
39997;DHT22;25688;52.338;21.072;2023-05-21T14:21:24;23.70;68.20
39997;DHT22;25688;52.338;21.072;2023-05-21T14:23:50;23.70;65.00
39997;DHT22;25688;52.338;21.072;2023-05-21T14:26:16;23.70;63.40
39997;DHT22;25688;52.338;21.072;2023-05-21T14:28:43;23.60;61.70
39997;DHT22;25688;52.338;21.072;2023-05-21T14:31:09;23.60;61.90
39997;DHT22;25688;52.338;21.072;2023-05-21T14:33:36;23.70;59.00
39997;DHT22;25688;52.338;21.072;2023-05-21T14:36:03;23.70;63.60
39997;DHT22;25688;52.338;21.072;2023-05-21T14:38:29;23.70;61.30
39997;DHT22;25688;52.338;21.072;2023-05-21T14:40:55;23.60;63.60
39997;DHT22;25688;52.338;21.072;2023-05-21T14:43:21;23.60;63.80
39997;DHT22;25688;52.338;21.072;2023-05-21T14:45:48;23.50;65.60
39997;DHT22;25688;52.338;21.072;2023-05-21T14:48:18;23.40;63.20
39997;DHT22;25688;52.338;21.072;2023-05-21T14:50:52;23.40;63.00
39997;DHT22;25688;52.338;21.072;2023-05-21T14:53:18;23.40;64.20
39997;DHT22;25688;52.338;21.072;2023-05-21T14:55:44;23.50;63.20
39997;DHT22;25688;52.338;21.072;2023-05-21T14:58:11;23.40;66.70
39997;DHT22;25688;52.338;21.072;2023-05-21T15:00:39;23.40;66.10
39997;DHT22;25688;52.338;21.072;2023-05-21T15:03:05;23.30;65.60
39997;DHT22;25688;52.338;21.072;2023-05-21T15:05:31;23.30;65.10
39997;DHT22;25688;52.338;21.072;2023-05-21T15:07:58;23.40;63.10
39997;DHT22;25688;52.338;21.072;2023-05-21T15:10:26;23.40;66.20
39997;DHT22;25688;52.338;21.072;2023-05-21T15:12:52;23.40;66.90
39997;DHT22;25688;52.338;21.072;2023-05-21T15:15:19;23.40;62.50
39997;DHT22;25688;52.338;21.072;2023-05-21T15:17:48;23.40;64.20
39997;DHT22;25688;52.338;21.072;2023-05-21T15:20:14;23.30;66.30
39997;DHT22;25688;52.338;21.072;2023-05-21T15:22:41;23.20;66.60
39997;DHT22;25688;52.338;21.072;2023-05-21T15:25:07;23.20;66.60
39997;DHT22;25688;52.338;21.072;2023-05-21T15:27:33;23.20;66.70
39997;DHT22;25688;52.338;21.072;2023-05-21T15:29:59;23.20;65.90
39997;DHT22;25688;52.338;21.072;2023-05-21T15:32:25;23.10;63.50
39997;DHT22;25688;52.338;21.072;2023-05-21T15:34:51;23.10;65.80
39997;DHT22;25688;52.338;21.072;2023-05-21T15:37:17;23.10;64.70